Time;durP1;ratioP1;P1;durP2;ratioP2;P2;SDS_P1;SDS_P2;PMS_P1;PMS_P2;Temp;Humidity;BMP_temperature;BMP_pressure;BME280_temperature;BME280_humidity;BME280_pressure;Samples;Min_cycle;Max_cycle;Signal;HPM_P1;HPM_P2
2022/01/21 02:02:06;;;;;;;6.35;2.95;;;4.00;99.90;;;;;;4863953;23;20244;-89
2022/01/21 02:04:33;;;;;;;5.75;1.95;;;4.00;99.90;;;;;;5024866;28;20239;-90
2022/01/21 02:07:00;;;;;;;9.35;2.80;;;3.60;99.90;;;;;;5023557;28;20231;-89
2022/01/21 02:09:28;;;;;;;7.10;2.60;;;3.90;99.90;;;;;;5022691;28;20267;-89
2022/01/21 02:11:55;;;;;;;6.22;1.80;;;4.10;99.90;;;;;;5033666;28;20231;-90
2022/01/21 02:14:26;;;;;;;15.65;2.50;;;3.90;99.90;;;;;;5026211;28;20214;-89
2022/01/21 02:17:14;;;;;;;8.73;2.78;;;3.80;99.90;;;;;;5029288;28;20268;-89
2022/01/21 02:22:33;;;;;;;10.02;3.33;;;3.90;99.90;;;;;;5021647;28;20227;-89
2022/01/21 02:25:15;;;;;;;5.97;2.40;;;4.00;99.90;;;;;;5021367;28;20668;-89
2022/01/21 02:27:43;;;;;;;9.18;2.53;;;4.00;99.90;;;;;;5021600;28;20675;-88
2022/01/21 02:30:18;;;;;;;5.43;2.67;;;3.90;99.90;;;;;;5020946;28;20218;-88
2022/01/21 02:32:48;;;;;;;6.80;2.60;;;4.00;99.90;;;;;;5021574;28;20298;-89
2022/01/21 02:35:15;;;;;;;9.52;3.35;;;4.10;99.90;;;;;;5021625;28;20193;-89
2022/01/21 02:37:43;;;;;;;9.80;3.88;;;4.10;99.90;;;;;;5020878;28;20279;-88
2022/01/21 02:40:13;;;;;;;12.60;3.47;;;4.00;99.90;;;;;;5020899;28;20215;-90
2022/01/21 02:42:40;;;;;;;8.05;2.20;;;4.10;99.90;;;;;;5021450;28;20265;-89
2022/01/21 02:45:09;;;;;;;10.25;2.95;;;3.90;99.90;;;;;;5020741;28;20251;-87
2022/01/21 02:47:37;;;;;;;7.07;2.85;;;3.80;99.90;;;;;;5021636;28;20692;-88
2022/01/21 02:50:05;;;;;;;6.72;2.67;;;3.80;99.90;;;;;;5022524;28;20212;-89
2022/01/21 02:52:40;;;;;;;5.45;2.70;;;3.90;99.90;;;;;;5021069;28;20236;-88
2022/01/21 02:55:10;;;;;;;10.40;2.95;;;3.70;99.90;;;;;;5020846;28;20205;-87
2022/01/21 02:57:37;;;;;;;5.95;2.63;;;3.60;99.90;;;;;;5021249;28;20207;-87
2022/01/21 03:00:05;;;;;;;8.13;2.22;;;3.20;99.90;;;;;;5021756;28;20724;-89
2022/01/21 03:02:32;;;;;;;7.25;2.88;;;3.60;99.90;;;;;;5021322;28;20292;-89
2022/01/21 03:05:04;;;;;;;6.00;2.50;;;3.50;99.90;;;;;;5024318;28;20279;-89
2022/01/21 03:07:31;;;;;;;11.38;3.08;;;3.60;99.90;;;;;;5024834;28;20212;-88
2022/01/21 03:09:58;;;;;;;5.45;2.05;;;3.70;99.90;;;;;;5024482;28;20227;-89
2022/01/21 03:12:26;;;;;;;4.60;2.42;;;4.10;99.90;;;;;;5029888;28;20229;-90
2022/01/21 03:14:55;;;;;;;7.22;2.72;;;3.80;99.90;;;;;;5026479;28;20208;-88
2022/01/21 03:17:22;;;;;;;9.23;3.25;;;3.90;99.90;;;;;;5025371;28;20231;-88
2022/01/21 03:19:49;;;;;;;6.82;2.90;;;3.90;99.90;;;;;;5026564;28;20712;-90
2022/01/21 03:22:16;;;;;;;9.57;3.15;;;3.60;99.90;;;;;;5026065;28;20751;-90
2022/01/21 03:24:43;;;;;;;8.48;2.70;;;3.70;99.90;;;;;;5027615;28;20308;-89
2022/01/21 03:27:10;;;;;;;7.00;2.72;;;3.80;99.90;;;;;;5039636;28;20291;-89
2022/01/21 03:29:38;;;;;;;7.07;2.17;;;3.80;99.90;;;;;;5037947;28;20199;-89
2022/01/21 03:32:06;;;;;;;8.80;3.10;;;3.80;99.90;;;;;;5030741;28;20220;-88
2022/01/21 03:34:33;;;;;;;10.52;2.55;;;3.70;99.90;;;;;;5039350;28;20203;-89
2022/01/21 03:37:00;;;;;;;9.82;2.63;;;3.70;99.90;;;;;;5033914;28;20275;-88
2022/01/21 03:39:28;;;;;;;9.85;2.35;;;3.70;99.90;;;;;;5033720;28;20208;-88
2022/01/21 03:41:55;;;;;;;6.75;2.60;;;3.60;99.90;;;;;;5028236;28;20231;-89
2022/01/21 03:44:22;;;;;;;7.50;2.85;;;4.10;99.90;;;;;;5025952;28;20215;-89
2022/01/21 03:46:50;;;;;;;9.75;2.60;;;3.70;99.90;;;;;;5024870;28;20735;-89
2022/01/21 03:49:17;;;;;;;5.22;2.65;;;3.60;99.90;;;;;;5025682;28;20206;-89
2022/01/21 03:51:44;;;;;;;7.80;3.35;;;3.60;99.90;;;;;;5024842;28;20291;-89
2022/01/21 03:54:11;;;;;;;7.65;2.90;;;3.80;99.90;;;;;;5024921;28;20272;-88
2022/01/21 03:56:39;;;;;;;10.98;3.33;;;4.00;99.90;;;;;;5025097;28;20291;-89
2022/01/21 03:59:07;;;;;;;9.52;3.05;;;3.80;99.90;;;;;;5025118;28;20212;-89
2022/01/21 04:01:34;;;;;;;7.80;3.17;;;3.80;99.90;;;;;;5033970;28;20216;-89
2022/01/21 04:04:02;;;;;;;9.93;3.15;;;3.70;99.90;;;;;;5029098;28;20232;-90
2022/01/21 04:06:29;;;;;;;10.05;3.15;;;3.80;99.90;;;;;;5026166;28;20222;-88
2022/01/21 04:08:56;;;;;;;7.60;2.72;;;3.60;99.90;;;;;;5024320;28;20260;-90
2022/01/21 04:11:23;;;;;;;11.10;2.70;;;3.50;99.90;;;;;;5032458;28;20262;-88
2022/01/21 04:13:51;;;;;;;5.20;2.05;;;3.40;99.90;;;;;;5035699;28;20231;-89
2022/01/21 04:16:18;;;;;;;15.77;4.28;;;3.90;99.90;;;;;;5037973;28;20238;-88
2022/01/21 04:18:45;;;;;;;6.50;3.30;;;3.60;99.90;;;;;;5030138;28;20296;-89
2022/01/21 04:21:14;;;;;;;9.07;3.33;;;3.60;99.90;;;;;;5024790;28;20223;-89
2022/01/21 04:23:43;;;;;;;8.65;2.85;;;3.60;99.90;;;;;;5023105;28;20289;-88
2022/01/21 04:26:10;;;;;;;8.43;2.33;;;3.80;99.90;;;;;;5024123;28;20303;-89
2022/01/21 04:28:37;;;;;;;7.20;3.08;;;3.50;99.90;;;;;;5032318;28;20231;-89
2022/01/21 04:31:04;;;;;;;8.80;3.13;;;3.40;99.90;;;;;;5027406;28;20207;-89
2022/01/21 04:33:31;;;;;;;8.45;3.45;;;3.60;99.90;;;;;;5025813;28;20232;-89
2022/01/21 04:35:58;;;;;;;10.02;3.65;;;3.20;99.90;;;;;;5037148;28;20225;-88
2022/01/21 04:38:28;;;;;;;9.70;3.70;;;3.70;99.90;;;;;;5038834;28;20255;-88
2022/01/21 04:41:01;;;;;;;6.15;1.92;;;3.60;99.90;;;;;;5039314;28;20201;-88
2022/01/21 04:48:57;;;;;;;8.65;3.22;;;3.40;99.90;;;;;;5038681;28;20206;-89
2022/01/21 04:51:28;;;;;;;6.90;2.70;;;3.40;99.90;;;;;;5037259;28;20240;-89
2022/01/21 04:53:57;;;;;;;11.93;3.65;;;3.50;99.90;;;;;;5024536;28;20315;-89
2022/01/21 04:56:24;;;;;;;7.80;3.53;;;3.40;99.90;;;;;;5024068;28;20238;-89
2022/01/21 04:58:53;;;;;;;12.68;3.90;;;3.70;99.90;;;;;;5024461;28;20242;-88
2022/01/21 05:01:20;;;;;;;14.40;3.83;;;3.50;99.90;;;;;;5036840;28;20230;-88
2022/01/21 05:03:47;;;;;;;16.75;4.47;;;3.50;99.90;;;;;;5038413;28;20219;-89
2022/01/21 05:06:13;;;;;;;10.93;4.00;;;3.70;99.90;;;;;;5032126;28;20239;-89
2022/01/21 05:08:45;;;;;;;8.38;3.80;;;3.50;99.90;;;;;;5023301;28;20619;-89
2022/01/21 05:11:16;;;;;;;9.10;3.25;;;3.70;99.90;;;;;;5024196;28;20287;-89
2022/01/21 05:13:51;;;;;;;8.60;3.00;;;3.30;99.90;;;;;;5023293;28;20648;-90
2022/01/21 05:16:30;;;;;;;7.78;3.35;;;3.30;99.90;;;;;;5032552;28;20195;-88
2022/01/21 05:18:58;;;;;;;12.95;4.13;;;3.40;99.90;;;;;;5033257;28;20230;-89
2022/01/21 05:21:27;;;;;;;14.55;3.40;;;3.50;99.90;;;;;;5023186;28;20231;-89
2022/01/21 05:23:54;;;;;;;11.40;3.30;;;3.40;99.90;;;;;;5023009;28;20620;-90
2022/01/21 05:26:23;;;;;;;8.20;3.35;;;3.30;99.90;;;;;;5022095;28;20212;-90
2022/01/21 05:28:50;;;;;;;9.00;3.45;;;3.00;99.90;;;;;;5023225;28;20204;-89
2022/01/21 05:31:17;;;;;;;6.55;3.03;;;3.60;99.90;;;;;;5022760;28;20286;-90
2022/01/21 05:33:43;;;;;;;14.77;3.30;;;3.50;99.90;;;;;;5021613;28;20664;-89
2022/01/21 05:36:10;;;;;;;8.77;3.55;;;3.40;99.90;;;;;;5024285;28;20207;-90
2022/01/21 05:38:37;;;;;;;7.65;3.20;;;3.40;99.90;;;;;;5024236;28;20238;-88
2022/01/21 05:41:04;;;;;;;12.20;4.07;;;3.20;99.90;;;;;;5022160;28;20264;-88
2022/01/21 05:43:33;;;;;;;10.13;3.08;;;3.60;99.90;;;;;;5021754;28;20254;-87
2022/01/21 05:48:44;;;;;;;10.05;3.70;;;3.60;99.90;;;;;;5021694;28;20279;-88
2022/01/21 05:51:11;;;;;;;10.90;3.90;;;3.70;99.90;;;;;;5022275;28;20211;-90
2022/01/21 05:53:39;;;;;;;14.82;3.05;;;3.70;99.90;;;;;;5023943;28;20225;-88
2022/01/21 05:56:06;;;;;;;9.18;3.35;;;3.80;99.90;;;;;;5021547;28;20650;-90
2022/01/21 05:58:34;;;;;;;10.80;3.67;;;3.80;99.90;;;;;;5022032;28;20204;-89
2022/01/21 06:01:01;;;;;;;12.63;4.10;;;4.00;99.90;;;;;;5022211;28;20223;-89
2022/01/21 06:03:28;;;;;;;9.93;3.97;;;4.10;99.90;;;;;;5021630;28;20243;-87
2022/01/21 06:05:55;;;;;;;15.02;4.55;;;3.60;99.90;;;;;;5024596;28;20214;-89
2022/01/21 06:08:22;;;;;;;10.55;3.75;;;3.80;99.90;;;;;;5027422;28;20256;-87
2022/01/21 06:10:49;;;;;;;11.75;4.63;;;3.70;99.90;;;;;;5024122;28;20277;-88
2022/01/21 06:13:18;;;;;;;13.38;4.00;;;3.70;99.90;;;;;;5022634;28;20227;-87
2022/01/21 06:15:47;;;;;;;13.93;5.32;;;3.70;99.90;;;;;;5035455;28;20192;-87
2022/01/21 06:18:14;;;;;;;11.35;4.38;;;3.70;99.90;;;;;;5031645;28;20272;-89
2022/01/21 06:20:42;;;;;;;9.27;3.80;;;3.40;99.90;;;;;;5037301;28;20204;-89
2022/01/21 06:23:09;;;;;;;11.43;4.25;;;3.50;99.90;;;;;;5031615;28;20237;-89
2022/01/21 06:25:36;;;;;;;8.00;3.22;;;3.80;99.90;;;;;;5035326;28;20207;-89
2022/01/21 06:28:03;;;;;;;14.25;4.20;;;4.00;99.90;;;;;;5037211;28;20194;-89
2022/01/21 06:30:30;;;;;;;10.93;3.63;;;3.80;99.90;;;;;;5033818;28;20208;-89
2022/01/21 06:32:58;;;;;;;10.20;3.35;;;3.30;99.90;;;;;;5026140;28;20228;-89
2022/01/21 06:35:25;;;;;;;10.65;4.30;;;3.50;99.90;;;;;;5023094;28;20299;-88
2022/01/21 06:37:52;;;;;;;15.15;5.30;;;3.30;99.90;;;;;;5023561;28;20659;-89
2022/01/21 06:40:20;;;;;;;12.57;3.83;;;3.30;99.90;;;;;;5025926;28;20235;-89
2022/01/21 06:42:47;;;;;;;9.45;3.47;;;3.50;99.90;;;;;;5028370;28;20251;-89
2022/01/21 06:45:14;;;;;;;12.55;4.50;;;3.40;99.90;;;;;;5029294;28;20208;-90
2022/01/21 06:47:41;;;;;;;10.82;3.30;;;3.40;99.90;;;;;;5029621;28;20228;-88
2022/01/21 06:50:10;;;;;;;12.93;4.03;;;3.70;99.90;;;;;;5027131;28;20637;-88
2022/01/21 06:52:38;;;;;;;8.38;2.45;;;4.00;99.90;;;;;;5025561;28;20219;-88
2022/01/21 06:55:06;;;;;;;9.30;3.78;;;4.00;99.90;;;;;;5025524;28;20275;-87
2022/01/21 06:57:37;;;;;;;10.80;3.58;;;3.80;99.90;;;;;;5024779;28;20749;-89
2022/01/21 07:00:07;;;;;;;8.30;4.47;;;3.60;99.90;;;;;;5026349;28;20629;-88
2022/01/21 07:02:34;;;;;;;10.07;3.75;;;3.50;99.90;;;;;;5029716;28;20692;-87
2022/01/21 07:05:02;;;;;;;10.35;4.32;;;3.60;99.90;;;;;;5038807;28;20191;-89
2022/01/21 07:07:30;;;;;;;11.52;4.72;;;3.90;99.90;;;;;;5036078;28;20223;-90
2022/01/21 07:09:57;;;;;;;12.13;4.30;;;3.50;99.90;;;;;;5030961;28;20231;-89
2022/01/21 07:12:24;;;;;;;6.70;3.67;;;3.60;99.90;;;;;;5028202;28;20229;-88
2022/01/21 07:14:51;;;;;;;17.02;5.55;;;3.70;99.90;;;;;;5034310;28;20268;-89
2022/01/21 07:17:18;;;;;;;9.80;4.18;;;3.60;99.90;;;;;;5032491;28;20247;-89
2022/01/21 07:19:45;;;;;;;11.02;4.50;;;3.50;99.90;;;;;;5029496;28;20204;-89
2022/01/21 07:22:12;;;;;;;12.45;4.65;;;3.50;99.90;;;;;;5027131;28;20315;-89
2022/01/21 07:24:40;;;;;;;9.85;4.80;;;3.40;99.90;;;;;;5025913;28;20246;-89
2022/01/21 07:27:07;;;;;;;12.30;4.78;;;3.50;99.90;;;;;;5025997;28;20242;-89
2022/01/21 07:29:34;;;;;;;13.98;4.88;;;3.60;99.90;;;;;;5024808;28;20765;-88
2022/01/21 07:32:01;;;;;;;10.93;4.22;;;3.70;99.90;;;;;;5027584;28;20244;-90
2022/01/21 07:34:28;;;;;;;12.93;5.50;;;3.80;99.90;;;;;;5031260;28;20212;-87
2022/01/21 07:36:56;;;;;;;11.40;4.80;;;3.80;99.90;;;;;;5024790;28;20254;-88
2022/01/21 07:39:23;;;;;;;16.35;5.10;;;3.50;99.90;;;;;;5023206;28;20693;-86
2022/01/21 07:41:52;;;;;;;9.27;4.55;;;3.60;99.90;;;;;;5025142;28;20224;-87
2022/01/21 07:44:19;;;;;;;18.33;5.05;;;3.80;99.90;;;;;;5024082;28;20211;-87
2022/01/21 07:46:47;;;;;;;8.07;4.38;;;3.80;99.90;;;;;;5029254;28;20287;-88
2022/01/21 07:49:15;;;;;;;17.67;4.72;;;3.80;99.90;;;;;;5032984;28;20207;-86
2022/01/21 07:51:42;;;;;;;11.30;5.43;;;3.90;99.90;;;;;;5030110;28;20217;-86
2022/01/21 07:54:10;;;;;;;12.77;4.90;;;3.60;99.90;;;;;;5027296;28;20610;-88
2022/01/21 07:56:37;;;;;;;12.93;4.95;;;3.70;99.90;;;;;;5032479;28;20643;-88
2022/01/21 07:59:08;;;;;;;14.25;6.03;;;3.70;99.90;;;;;;5025424;28;20214;-87
2022/01/21 08:01:35;;;;;;;15.63;5.18;;;3.90;99.90;;;;;;5025698;28;20318;-89
2022/01/21 08:04:03;;;;;;;12.45;4.38;;;3.90;99.90;;;;;;5047143;23;20256;-89
2022/01/21 08:06:30;;;;;;;10.02;5.10;;;3.60;99.90;;;;;;5007707;28;20277;-88
2022/01/21 08:08:57;;;;;;;15.60;5.82;;;3.80;99.90;;;;;;5012743;28;20215;-88
2022/01/21 08:11:24;;;;;;;17.58;6.70;;;3.90;99.90;;;;;;5013341;28;20204;-89
2022/01/21 08:13:52;;;;;;;13.68;5.95;;;3.20;99.90;;;;;;5014787;28;20248;-87
2022/01/21 08:16:20;;;;;;;13.63;4.63;;;3.60;99.90;;;;;;5018280;28;20189;-85
2022/01/21 08:18:48;;;;;;;13.23;5.70;;;3.80;99.90;;;;;;5019703;28;20201;-88
2022/01/21 08:21:18;;;;;;;12.48;4.55;;;3.30;99.90;;;;;;5014975;28;20213;-87
2022/01/21 08:23:47;;;;;;;13.10;5.47;;;3.80;99.90;;;;;;5016051;28;20224;-87
2022/01/21 08:26:14;;;;;;;10.65;4.97;;;3.90;99.90;;;;;;5017904;28;20682;-88
2022/01/21 08:28:41;;;;;;;13.43;6.00;;;3.80;99.90;;;;;;5017037;28;20230;-86
2022/01/21 08:31:08;;;;;;;14.32;4.85;;;3.90;99.90;;;;;;5017052;28;20220;-87
2022/01/21 08:33:36;;;;;;;13.07;5.10;;;3.90;99.90;;;;;;5015885;28;20292;-89
2022/01/21 08:36:04;;;;;;;7.80;3.97;;;3.90;99.90;;;;;;5015908;28;20215;-88
2022/01/21 08:38:31;;;;;;;13.00;4.90;;;4.00;99.90;;;;;;5013851;28;20217;-89
2022/01/21 08:40:58;;;;;;;7.75;4.07;;;4.00;99.90;;;;;;5011924;28;20214;-87
2022/01/21 08:43:26;;;;;;;11.25;3.88;;;4.30;99.90;;;;;;5008996;28;20256;-87
2022/01/21 08:45:53;;;;;;;13.90;4.32;;;3.80;99.90;;;;;;5015135;28;20189;-85
2022/01/21 08:48:20;;;;;;;12.50;4.78;;;3.80;99.90;;;;;;5019671;28;20251;-87
2022/01/21 08:50:51;;;;;;;12.65;5.90;;;3.90;99.90;;;;;;5018048;28;20232;-88
2022/01/21 08:56:04;;;;;;;8.93;4.65;;;3.50;99.90;;;;;;5011907;28;20191;-86
2022/01/21 08:58:31;;;;;;;16.73;6.07;;;3.80;99.90;;;;;;5007122;28;20207;-87
2022/01/21 09:00:58;;;;;;;15.48;6.25;;;3.50;99.90;;;;;;5006251;28;20212;-87
2022/01/21 09:03:26;;;;;;;14.75;5.75;;;4.00;99.90;;;;;;5005676;28;20267;-88
2022/01/21 09:05:54;;;;;;;11.85;5.30;;;3.50;99.90;;;;;;5006101;28;20216;-88
2022/01/21 09:08:24;;;;;;;13.98;5.45;;;4.10;99.90;;;;;;5007780;28;20200;-87
2022/01/21 09:10:51;;;;;;;13.48;5.03;;;4.20;99.90;;;;;;5006861;28;20653;-87
2022/01/21 09:13:18;;;;;;;12.13;5.70;;;3.80;99.90;;;;;;5001818;28;20279;-86
2022/01/21 09:15:45;;;;;;;12.80;5.75;;;3.50;99.90;;;;;;5002930;28;20214;-88
2022/01/21 09:18:17;;;;;;;10.95;4.88;;;3.50;99.90;;;;;;5003011;28;20209;-89
2022/01/21 09:20:44;;;;;;;13.02;5.22;;;3.80;99.90;;;;;;5004060;28;20202;-87
2022/01/21 09:23:13;;;;;;;14.13;6.70;;;3.80;99.90;;;;;;5002855;28;20232;-87
2022/01/21 09:25:43;;;;;;;14.50;6.00;;;4.30;99.90;;;;;;5004555;28;20297;-87
2022/01/21 09:28:10;;;;;;;12.23;6.40;;;4.40;99.90;;;;;;5011180;28;20209;-88
2022/01/21 09:30:37;;;;;;;13.00;6.40;;;4.10;99.90;;;;;;5018095;28;20221;-89
2022/01/21 09:33:04;;;;;;;16.63;6.03;;;4.20;99.90;;;;;;5008550;28;20235;-88
2022/01/21 09:35:31;;;;;;;12.60;5.78;;;4.30;99.90;;;;;;5014296;28;20208;-89
2022/01/21 09:38:00;;;;;;;9.65;4.72;;;4.50;99.90;;;;;;5003813;28;20636;-88
2022/01/21 09:40:32;;;;;;;10.20;4.63;;;4.50;99.90;;;;;;5001336;28;20213;-88
2022/01/21 09:43:01;;;;;;;11.98;6.45;;;4.70;99.90;;;;;;5003463;28;20262;-89
2022/01/21 09:45:31;;;;;;;15.38;5.72;;;4.50;99.90;;;;;;5007026;28;20233;-88
2022/01/21 09:48:06;;;;;;;12.05;4.97;;;4.00;99.90;;;;;;5018451;28;20620;-90
2022/01/21 09:50:33;;;;;;;9.95;5.80;;;4.40;99.90;;;;;;5018107;28;20228;-89
2022/01/21 09:53:07;;;;;;;10.50;5.13;;;4.50;99.90;;;;;;5016726;28;20225;-89
2022/01/21 09:55:37;;;;;;;9.80;5.40;;;4.50;99.90;;;;;;5009803;28;20186;-88
2022/01/21 09:58:04;;;;;;;9.32;4.65;;;4.60;99.90;;;;;;5008068;28;20213;-88
2022/01/21 10:00:31;;;;;;;20.50;6.90;;;4.30;99.90;;;;;;5016703;28;20209;-88
2022/01/21 10:03:01;;;;;;;12.52;5.18;;;4.30;99.90;;;;;;5015351;28;20239;-88
2022/01/21 10:05:28;;;;;;;10.75;5.32;;;4.10;99.90;;;;;;5005634;28;20209;-89
2022/01/21 10:07:59;;;;;;;9.88;5.10;;;4.50;99.90;;;;;;5006957;28;20218;-87
2022/01/21 10:10:26;;;;;;;14.85;6.25;;;4.60;99.90;;;;;;5009913;28;20232;-87
2022/01/21 10:13:02;;;;;;;8.55;4.68;;;4.40;99.90;;;;;;5014393;28;20228;-87
2022/01/21 10:15:29;;;;;;;11.25;4.97;;;4.40;99.90;;;;;;5014130;28;20197;-88
2022/01/21 10:18:00;;;;;;;7.75;4.63;;;5.00;99.90;;;;;;5008855;28;20199;-88
2022/01/21 10:20:27;;;;;;;6.53;4.22;;;5.00;99.90;;;;;;5010121;28;20226;-89
2022/01/21 10:23:01;;;;;;;15.30;4.90;;;4.70;99.90;;;;;;5010545;28;20296;-89
2022/01/21 10:25:28;;;;;;;8.40;4.45;;;4.80;99.90;;;;;;5009016;28;20198;-88
2022/01/21 10:28:12;;;;;;;19.35;5.22;;;4.80;99.90;;;;;;5011634;28;20232;-87
2022/01/21 10:30:40;;;;;;;12.27;4.90;;;4.20;99.90;;;;;;5011353;28;20197;-89
2022/01/21 10:33:21;;;;;;;12.20;4.72;;;4.90;99.90;;;;;;5013020;28;20283;-87
2022/01/21 10:35:51;;;;;;;11.65;4.65;;;4.90;99.90;;;;;;5007188;28;20309;-88
2022/01/21 10:38:22;;;;;;;9.40;5.00;;;4.90;99.90;;;;;;5009554;28;20235;-89
2022/01/21 10:40:50;;;;;;;9.40;4.78;;;4.90;99.90;;;;;;5009080;28;20248;-89
2022/01/21 10:43:19;;;;;;;12.05;4.63;;;4.80;99.90;;;;;;5010407;28;20253;-87
2022/01/21 10:45:51;;;;;;;12.18;5.05;;;4.90;99.90;;;;;;5012123;28;20195;-88
2022/01/21 10:48:18;;;;;;;12.75;4.78;;;4.60;99.90;;;;;;5008845;28;20220;-88
2022/01/21 10:50:45;;;;;;;10.45;5.25;;;5.10;99.90;;;;;;5011220;28;20206;-88
2022/01/21 10:53:32;;;;;;;20.25;5.35;;;4.80;99.90;;;;;;5021010;28;20217;-88
2022/01/21 10:56:11;;;;;;;9.73;4.28;;;5.10;99.90;;;;;;5015752;28;20201;-88
2022/01/21 10:58:44;;;;;;;10.13;4.50;;;4.50;99.90;;;;;;5019655;28;20209;-88
2022/01/21 11:01:16;;;;;;;8.40;4.15;;;4.40;99.90;;;;;;5011545;28;20221;-89
2022/01/21 11:03:58;;;;;;;11.63;4.45;;;4.60;99.90;;;;;;5009740;28;20288;-89
2022/01/21 11:06:35;;;;;;;8.05;4.30;;;4.90;99.90;;;;;;5014051;28;20262;-87
2022/01/21 11:09:20;;;;;;;9.27;4.45;;;4.50;99.90;;;;;;5010243;28;20197;-90
2022/01/21 11:11:49;;;;;;;17.23;4.82;;;4.80;99.90;;;;;;5016478;28;20208;-87
2022/01/21 11:14:22;;;;;;;11.45;4.75;;;4.50;99.90;;;;;;5019298;28;20224;-89
2022/01/21 11:16:50;;;;;;;9.00;4.30;;;4.60;99.90;;;;;;5010331;28;20206;-88
2022/01/21 11:19:28;;;;;;;8.13;4.57;;;4.70;99.90;;;;;;5009407;28;20218;-87
2022/01/21 11:21:56;;;;;;;10.10;5.00;;;4.70;99.90;;;;;;5009317;28;20632;-88
2022/01/21 11:24:25;;;;;;;15.18;7.10;;;4.50;99.90;;;;;;5014121;28;20283;-89
2022/01/21 11:27:12;;;;;;;13.88;3.75;;;5.00;99.90;;;;;;5016300;28;20238;-88
2022/01/21 11:29:42;;;;;;;7.15;3.67;;;4.80;99.90;;;;;;5016870;28;20217;-88
2022/01/21 11:32:10;;;;;;;8.65;3.65;;;5.60;99.90;;;;;;5010796;28;20247;-89
2022/01/21 11:34:42;;;;;;;14.95;3.88;;;5.10;99.90;;;;;;5005147;28;20208;-87
2022/01/21 11:37:10;;;;;;;7.30;3.75;;;4.80;99.90;;;;;;5009208;28;20194;-88
2022/01/21 11:39:39;;;;;;;9.82;3.70;;;4.60;99.90;;;;;;5013417;28;20212;-89
2022/01/21 11:42:08;;;;;;;8.30;3.45;;;4.70;99.90;;;;;;5014278;28;20240;-88
2022/01/21 11:44:38;;;;;;;9.23;4.10;;;5.40;99.90;;;;;;5015237;28;20238;-87
2022/01/21 11:47:28;;;;;;;7.95;3.63;;;5.30;99.90;;;;;;5014358;28;20195;-88
2022/01/21 11:49:59;;;;;;;14.40;3.10;;;5.30;99.90;;;;;;5014321;28;20250;-89
2022/01/21 11:52:26;;;;;;;9.45;2.85;;;5.10;99.90;;;;;;5018788;28;20233;-88
2022/01/21 11:54:53;;;;;;;10.48;3.83;;;5.20;99.90;;;;;;5016059;28;20243;-89
2022/01/21 11:57:30;;;;;;;10.10;3.70;;;5.10;99.90;;;;;;5010377;28;20261;-89
2022/01/21 12:00:05;;;;;;;8.27;3.33;;;5.00;99.90;;;;;;5009744;28;20665;-89
2022/01/21 12:02:34;;;;;;;9.93;3.20;;;5.40;99.90;;;;;;5009589;28;20300;-87
2022/01/21 12:05:07;;;;;;;12.15;3.85;;;5.20;99.90;;;;;;5011973;28;20701;-89
2022/01/21 12:08:03;;;;;;;9.07;3.53;;;5.30;99.90;;;;;;5008877;28;20221;-89
2022/01/21 12:10:39;;;;;;;8.60;2.63;;;5.10;99.90;;;;;;5007675;28;20533;-89
2022/01/21 12:13:16;;;;;;;16.52;4.78;;;5.10;99.90;;;;;;5007627;28;20262;-88
2022/01/21 12:22:18;;;;;;;24.08;6.28;;;5.30;99.90;;;;;;5005661;28;20207;-87
2022/01/21 12:24:56;;;;;;;12.60;3.75;;;5.30;99.90;;;;;;5008357;28;20229;-87
2022/01/21 12:27:25;;;;;;;17.00;3.40;;;5.40;99.90;;;;;;5006427;28;20242;-88
2022/01/21 12:30:12;;;;;;;13.50;3.70;;;5.30;99.90;;;;;;5007876;28;20205;-88
2022/01/21 12:32:53;;;;;;;10.27;2.97;;;5.60;99.90;;;;;;5012383;28;20219;-88
2022/01/21 12:35:23;;;;;;;8.27;3.35;;;5.00;99.90;;;;;;5009964;28;20192;-89
2022/01/21 12:41:24;;;;;;;8.98;2.80;;;5.60;99.90;;;;;;4966130;28;20237;-89
2022/01/21 12:43:53;;;;;;;9.52;2.75;;;5.20;99.90;;;;;;5011454;28;20264;-89
2022/01/21 12:46:30;;;;;;;6.10;2.28;;;5.00;99.90;;;;;;5010647;28;20210;-88
2022/01/21 12:49:01;;;;;;;7.88;2.95;;;5.80;99.90;;;;;;5008158;28;20479;-87
2022/01/21 12:51:56;;;;;;;7.50;2.80;;;5.60;99.90;;;;;;5008864;28;20204;-88
2022/01/21 12:57:11;;;;;;;9.88;3.10;;;5.10;99.90;;;;;;5018734;28;20210;-86
2022/01/21 12:59:38;;;;;;;7.53;3.38;;;5.10;99.90;;;;;;5016283;28;20229;-88
2022/01/21 13:02:06;;;;;;;18.25;5.55;;;5.50;99.90;;;;;;5016047;28;20221;-86
2022/01/21 13:04:51;;;;;;;10.98;2.53;;;5.40;99.90;;;;;;5013851;28;20278;-88
2022/01/21 13:07:27;;;;;;;8.18;3.33;;;5.40;99.90;;;;;;5007480;28;20622;-88
2022/01/21 13:10:07;;;;;;;6.75;2.92;;;5.50;99.90;;;;;;5006286;28;20214;-89
2022/01/21 13:12:58;;;;;;;10.05;3.15;;;5.30;99.90;;;;;;5011123;28;20244;-87
2022/01/21 13:15:36;;;;;;;13.98;3.78;;;5.50;99.90;;;;;;5010428;28;20190;-88
2022/01/21 13:18:03;;;;;;;7.65;2.85;;;5.50;99.90;;;;;;5006891;28;20187;-87
2022/01/21 13:20:35;;;;;;;3.28;1.27;;;5.40;99.90;;;;;;5002927;28;20206;-87
2022/01/21 13:23:12;;;;;;;9.35;2.50;;;5.20;99.90;;;;;;5004879;28;20241;-88
2022/01/21 13:25:39;;;;;;;11.38;2.75;;;5.30;99.90;;;;;;5014937;28;20296;-88
2022/01/21 13:28:08;;;;;;;9.30;2.63;;;5.20;99.90;;;;;;5008947;28;20294;-88
2022/01/21 13:30:38;;;;;;;8.27;2.45;;;5.40;99.90;;;;;;5006651;28;20219;-89
2022/01/21 13:33:08;;;;;;;11.73;2.70;;;5.50;99.90;;;;;;5005554;28;20226;-88
2022/01/21 13:35:38;;;;;;;12.45;2.85;;;5.60;99.90;;;;;;5008720;28;20213;-88
2022/01/21 13:38:09;;;;;;;8.68;2.60;;;5.30;99.90;;;;;;5005539;28;20704;-89
2022/01/21 13:40:42;;;;;;;11.32;2.90;;;5.60;99.90;;;;;;5007209;28;20232;-88
2022/01/21 13:43:12;;;;;;;11.85;3.00;;;5.70;99.90;;;;;;5004366;28;20234;-87
2022/01/21 13:45:41;;;;;;;9.00;2.45;;;5.50;99.90;;;;;;5005352;28;20213;-89
2022/01/21 13:48:10;;;;;;;11.43;2.17;;;5.60;99.90;;;;;;5005555;28;20211;-88
2022/01/21 13:50:44;;;;;;;8.90;2.55;;;5.60;99.90;;;;;;5013150;28;20218;-88
2022/01/21 13:53:12;;;;;;;7.53;2.53;;;5.10;99.90;;;;;;5010288;28;20258;-88
2022/01/21 13:55:42;;;;;;;12.20;2.65;;;5.40;99.90;;;;;;5009731;28;20585;-88
2022/01/21 13:58:12;;;;;;;9.15;3.35;;;5.60;99.90;;;;;;5003756;28;20211;-88
2022/01/21 14:00:44;;;;;;;15.02;2.78;;;5.50;99.90;;;;;;5010132;28;20249;-88
2022/01/21 14:20:31;;;;;;;8.27;2.30;;;6.00;99.90;;;;;;4882789;29;20580;-80
2022/01/21 15:07:09;;;;;;;12.85;3.22;;;5.60;99.90;;;;;;4916483;29;20724;-82
2022/01/21 16:25:31;;;;;;;8.27;3.25;;;5.60;99.90;;;;;;4890418;29;20341;-82
2022/01/21 17:00:58;;;;;;;7.40;3.53;;;5.40;99.90;;;;;;4820040;29;20220;-83
2022/01/21 18:04:47;;;;;;;8.80;3.80;;;5.20;99.90;;;;;;4705190;30;20311;-82
2022/01/21 18:24:23;;;;;;;;;;;;;;;;;;;;;
2022/01/21 19:04:54;;;;;;;9.77;4.03;;;5.30;99.90;;;;;;4859511;29;20246;-81
2022/01/21 19:25:36;;;;;;;7.43;4.32;;;5.20;99.90;;;;;;4794840;30;20240;-82
2022/01/21 20:10:52;;;;;;;12.93;5.57;;;5.30;99.90;;;;;;5006985;28;20217;-88
2022/01/21 20:13:22;;;;;;;14.18;5.72;;;4.90;99.90;;;;;;4990310;28;20280;-88
2022/01/21 20:15:51;;;;;;;8.07;4.72;;;5.20;99.90;;;;;;5017737;28;20220;-87
2022/01/21 20:18:21;;;;;;;8.73;4.93;;;5.10;99.90;;;;;;5010836;28;20219;-89
2022/01/21 20:20:48;;;;;;;13.15;4.85;;;4.70;99.90;;;;;;5005598;28;20240;-88
2022/01/21 20:23:16;;;;;;;11.18;5.47;;;5.00;99.90;;;;;;5006481;28;20221;-89
2022/01/21 20:25:43;;;;;;;10.68;4.70;;;4.80;99.90;;;;;;5005226;28;20589;-88
2022/01/21 20:28:09;;;;;;;8.95;5.13;;;5.00;99.90;;;;;;5005520;28;20213;-89
2022/01/21 20:30:38;;;;;;;13.98;5.40;;;5.00;99.90;;;;;;5004542;28;20665;-89
2022/01/21 20:33:05;;;;;;;11.15;5.80;;;4.90;99.90;;;;;;5003921;28;20218;-88
2022/01/21 20:35:35;;;;;;;9.27;4.70;;;5.00;99.90;;;;;;5004540;28;20225;-87
2022/01/21 20:38:05;;;;;;;15.38;5.18;;;4.90;99.90;;;;;;5005083;28;20245;-90
2022/01/21 20:40:43;;;;;;;7.70;3.78;;;5.20;99.90;;;;;;5005075;28;20198;-89
2022/01/21 20:43:11;;;;;;;8.07;4.10;;;5.10;99.90;;;;;;5005961;28;20592;-88
2022/01/21 20:45:40;;;;;;;10.43;4.40;;;5.00;99.90;;;;;;5004550;28;20230;-90
2022/01/21 20:48:08;;;;;;;9.23;4.00;;;5.00;99.90;;;;;;5004360;28;20217;-89
2022/01/21 20:50:35;;;;;;;11.55;5.20;;;5.10;99.90;;;;;;5003710;28;20269;-88
2022/01/21 20:53:02;;;;;;;10.15;4.55;;;4.90;99.90;;;;;;5004721;28;20233;-88
2022/01/21 20:55:29;;;;;;;7.22;4.68;;;5.00;99.90;;;;;;5003517;28;20310;-87
2022/01/21 20:57:56;;;;;;;7.90;4.18;;;4.90;99.90;;;;;;5008209;28;20228;-88
2022/01/21 21:00:23;;;;;;;10.80;4.95;;;5.00;99.90;;;;;;5012956;28;20189;-88
2022/01/21 21:02:51;;;;;;;10.13;4.75;;;5.10;99.90;;;;;;5016448;28;20197;-89
2022/01/21 21:05:19;;;;;;;9.70;4.57;;;5.00;99.90;;;;;;5007611;28;20723;-88
2022/01/21 21:07:45;;;;;;;9.90;4.63;;;4.80;99.90;;;;;;5004670;28;20216;-88
2022/01/21 21:10:19;;;;;;;11.70;4.55;;;4.90;99.90;;;;;;5005152;28;20227;-89
2022/01/21 21:12:46;;;;;;;9.95;5.65;;;4.90;99.90;;;;;;5013969;28;20209;-87
2022/01/21 21:17:51;;;;;;;11.20;5.97;;;4.90;99.90;;;;;;5036368;28;20206;-87
2022/01/21 21:26:23;;;;;;;15.30;5.68;;;4.70;99.90;;;;;;5340856;23;20266;-87
2022/01/21 21:29:22;;;;;;;9.55;5.40;;;4.80;99.90;;;;;;5273630;23;20251;-83